sensor_id;sensor_type;location;lat;lon;timestamp;temperature;humidity
44037;DHT22;62488;-37.670;-63.532;2023-01-31T00:00:29;27.40;84.80
44037;DHT22;62488;-37.670;-63.532;2023-01-31T00:02:55;27.40;84.60
44037;DHT22;62488;-37.670;-63.532;2023-01-31T00:05:22;27.30;85.00
44037;DHT22;62488;-37.670;-63.532;2023-01-31T00:07:49;27.20;84.80
44037;DHT22;62488;-37.670;-63.532;2023-01-31T00:10:16;27.10;84.80
44037;DHT22;62488;-37.670;-63.532;2023-01-31T00:12:43;27.10;85.10
44037;DHT22;62488;-37.670;-63.532;2023-01-31T00:15:10;27.00;85.10
44037;DHT22;62488;-37.670;-63.532;2023-01-31T00:17:38;26.90;85.30
44037;DHT22;62488;-37.670;-63.532;2023-01-31T00:20:06;26.80;85.60
44037;DHT22;62488;-37.670;-63.532;2023-01-31T00:22:33;26.70;85.80
44037;DHT22;62488;-37.670;-63.532;2023-01-31T00:25:00;26.60;85.90
44037;DHT22;62488;-37.670;-63.532;2023-01-31T00:27:27;26.40;86.20
44037;DHT22;62488;-37.670;-63.532;2023-01-31T00:29:54;26.30;86.70
44037;DHT22;62488;-37.670;-63.532;2023-01-31T00:32:21;26.20;87.60
44037;DHT22;62488;-37.670;-63.532;2023-01-31T00:34:48;26.10;87.80
44037;DHT22;62488;-37.670;-63.532;2023-01-31T00:37:15;26.00;88.10
44037;DHT22;62488;-37.670;-63.532;2023-01-31T00:39:42;25.90;88.30
44037;DHT22;62488;-37.670;-63.532;2023-01-31T00:42:09;25.90;88.70
44037;DHT22;62488;-37.670;-63.532;2023-01-31T00:44:36;25.80;89.50
44037;DHT22;62488;-37.670;-63.532;2023-01-31T00:47:03;25.70;89.60
44037;DHT22;62488;-37.670;-63.532;2023-01-31T00:49:30;25.70;89.90
44037;DHT22;62488;-37.670;-63.532;2023-01-31T00:51:57;25.60;90.20
44037;DHT22;62488;-37.670;-63.532;2023-01-31T00:54:24;25.50;90.20
44037;DHT22;62488;-37.670;-63.532;2023-01-31T00:56:51;25.40;89.90
44037;DHT22;62488;-37.670;-63.532;2023-01-31T00:59:18;25.50;87.50
44037;DHT22;62488;-37.670;-63.532;2023-01-31T01:01:45;25.50;85.60
44037;DHT22;62488;-37.670;-63.532;2023-01-31T01:04:12;25.60;84.10
44037;DHT22;62488;-37.670;-63.532;2023-01-31T01:06:39;25.60;82.70
44037;DHT22;62488;-37.670;-63.532;2023-01-31T01:09:07;25.70;82.50
44037;DHT22;62488;-37.670;-63.532;2023-01-31T01:11:34;25.70;82.60
44037;DHT22;62488;-37.670;-63.532;2023-01-31T01:14:01;25.70;82.70
44037;DHT22;62488;-37.670;-63.532;2023-01-31T01:16:35;25.70;82.80
44037;DHT22;62488;-37.670;-63.532;2023-01-31T01:19:04;25.50;82.80
44037;DHT22;62488;-37.670;-63.532;2023-01-31T01:21:32;25.40;83.30
44037;DHT22;62488;-37.670;-63.532;2023-01-31T01:24:06;25.30;83.70
44037;DHT22;62488;-37.670;-63.532;2023-01-31T01:26:34;25.20;83.80
44037;DHT22;62488;-37.670;-63.532;2023-01-31T01:29:02;25.10;83.90
44037;DHT22;62488;-37.670;-63.532;2023-01-31T01:31:29;25.00;83.80
44037;DHT22;62488;-37.670;-63.532;2023-01-31T01:34:05;24.90;84.10
44037;DHT22;62488;-37.670;-63.532;2023-01-31T01:36:35;24.80;84.10
44037;DHT22;62488;-37.670;-63.532;2023-01-31T01:39:07;24.70;84.20
44037;DHT22;62488;-37.670;-63.532;2023-01-31T01:41:34;24.70;84.20
44037;DHT22;62488;-37.670;-63.532;2023-01-31T01:44:39;24.60;84.30
44037;DHT22;62488;-37.670;-63.532;2023-01-31T01:46:50;24.50;84.10
44037;DHT22;62488;-37.670;-63.532;2023-01-31T01:49:37;24.50;84.40
44037;DHT22;62488;-37.670;-63.532;2023-01-31T01:52:07;24.40;84.60
44037;DHT22;62488;-37.670;-63.532;2023-01-31T01:54:42;24.40;84.70
44037;DHT22;62488;-37.670;-63.532;2023-01-31T01:57:11;24.40;84.80
44037;DHT22;62488;-37.670;-63.532;2023-01-31T02:00:34;24.40;84.90
44037;DHT22;62488;-37.670;-63.532;2023-01-31T02:02:43;24.40;84.70
44037;DHT22;62488;-37.670;-63.532;2023-01-31T02:05:14;24.50;84.60
44037;DHT22;62488;-37.670;-63.532;2023-01-31T02:07:42;24.50;84.50
44037;DHT22;62488;-37.670;-63.532;2023-01-31T02:10:56;24.40;84.90
44037;DHT22;62488;-37.670;-63.532;2023-01-31T02:13:22;24.30;84.90
44037;DHT22;62488;-37.670;-63.532;2023-01-31T02:15:49;24.30;85.00
44037;DHT22;62488;-37.670;-63.532;2023-01-31T02:18:18;24.30;85.20
44037;DHT22;62488;-37.670;-63.532;2023-01-31T02:26:40;24.20;85.00
44037;DHT22;62488;-37.670;-63.532;2023-01-31T02:29:33;24.20;85.20
44037;DHT22;62488;-37.670;-63.532;2023-01-31T02:38:09;24.00;85.40
44037;DHT22;62488;-37.670;-63.532;2023-01-31T02:40:59;23.90;85.70
44037;DHT22;62488;-37.670;-63.532;2023-01-31T02:46:56;23.80;86.20
44037;DHT22;62488;-37.670;-63.532;2023-01-31T02:49:40;23.70;86.10
44037;DHT22;62488;-37.670;-63.532;2023-01-31T02:58:13;23.50;86.80
44037;DHT22;62488;-37.670;-63.532;2023-01-31T03:00:43;23.40;87.80
44037;DHT22;62488;-37.670;-63.532;2023-01-31T03:03:21;23.40;88.70
44037;DHT22;62488;-37.670;-63.532;2023-01-31T03:09:12;23.20;90.40
44037;DHT22;62488;-37.670;-63.532;2023-01-31T03:12:14;23.10;91.00
44037;DHT22;62488;-37.670;-63.532;2023-01-31T03:17:49;23.00;91.90
44037;DHT22;62488;-37.670;-63.532;2023-01-31T03:20:43;22.90;92.30
44037;DHT22;62488;-37.670;-63.532;2023-01-31T03:23:20;23.00;92.60
44037;DHT22;62488;-37.670;-63.532;2023-01-31T03:25:48;22.90;92.70
44037;DHT22;62488;-37.670;-63.532;2023-01-31T03:28:19;23.00;92.80
44037;DHT22;62488;-37.670;-63.532;2023-01-31T03:33:55;23.00;93.40
44037;DHT22;62488;-37.670;-63.532;2023-01-31T03:36:27;23.10;93.40
44037;DHT22;62488;-37.670;-63.532;2023-01-31T03:39:11;23.10;93.40
44037;DHT22;62488;-37.670;-63.532;2023-01-31T03:44:29;23.20;93.30
44037;DHT22;62488;-37.670;-63.532;2023-01-31T03:47:08;23.20;93.40
44037;DHT22;62488;-37.670;-63.532;2023-01-31T03:49:39;23.20;93.50
44037;DHT22;62488;-37.670;-63.532;2023-01-31T03:52:08;23.20;93.50
44037;DHT22;62488;-37.670;-63.532;2023-01-31T03:54:45;23.30;93.50
44037;DHT22;62488;-37.670;-63.532;2023-01-31T03:57:19;23.30;93.60
44037;DHT22;62488;-37.670;-63.532;2023-01-31T03:59:51;23.30;93.60
44037;DHT22;62488;-37.670;-63.532;2023-01-31T04:02:22;23.40;93.70
44037;DHT22;62488;-37.670;-63.532;2023-01-31T04:04:53;23.50;93.80
44037;DHT22;62488;-37.670;-63.532;2023-01-31T04:07:22;23.50;93.80
44037;DHT22;62488;-37.670;-63.532;2023-01-31T04:09:50;23.50;94.00
44037;DHT22;62488;-37.670;-63.532;2023-01-31T04:12:17;23.50;94.10
44037;DHT22;62488;-37.670;-63.532;2023-01-31T04:14:43;23.40;94.20
44037;DHT22;62488;-37.670;-63.532;2023-01-31T04:17:10;23.30;94.40
44037;DHT22;62488;-37.670;-63.532;2023-01-31T04:19:37;23.30;94.80
44037;DHT22;62488;-37.670;-63.532;2023-01-31T04:22:05;23.10;95.00
44037;DHT22;62488;-37.670;-63.532;2023-01-31T04:24:32;23.00;95.40
44037;DHT22;62488;-37.670;-63.532;2023-01-31T04:26:59;23.00;95.70
44037;DHT22;62488;-37.670;-63.532;2023-01-31T04:29:26;22.90;95.90
44037;DHT22;62488;-37.670;-63.532;2023-01-31T04:31:53;22.80;96.10
44037;DHT22;62488;-37.670;-63.532;2023-01-31T04:34:20;22.80;96.30
44037;DHT22;62488;-37.670;-63.532;2023-01-31T04:36:47;22.70;96.50
44037;DHT22;62488;-37.670;-63.532;2023-01-31T04:39:14;22.60;96.70
44037;DHT22;62488;-37.670;-63.532;2023-01-31T04:41:41;22.60;96.90
44037;DHT22;62488;-37.670;-63.532;2023-01-31T04:44:08;22.50;97.10
44037;DHT22;62488;-37.670;-63.532;2023-01-31T04:46:35;22.40;97.50
44037;DHT22;62488;-37.670;-63.532;2023-01-31T04:49:02;22.30;97.70
44037;DHT22;62488;-37.670;-63.532;2023-01-31T04:51:29;22.30;98.00
44037;DHT22;62488;-37.670;-63.532;2023-01-31T04:53:56;22.20;98.20
44037;DHT22;62488;-37.670;-63.532;2023-01-31T04:56:23;22.20;98.50
44037;DHT22;62488;-37.670;-63.532;2023-01-31T04:58:50;22.20;98.60
44037;DHT22;62488;-37.670;-63.532;2023-01-31T05:01:17;22.20;98.70
44037;DHT22;62488;-37.670;-63.532;2023-01-31T05:03:44;22.20;98.70
44037;DHT22;62488;-37.670;-63.532;2023-01-31T05:06:11;22.30;98.90
44037;DHT22;62488;-37.670;-63.532;2023-01-31T05:08:38;22.30;98.90
44037;DHT22;62488;-37.670;-63.532;2023-01-31T05:11:06;22.30;98.90
44037;DHT22;62488;-37.670;-63.532;2023-01-31T05:13:33;22.30;98.90
44037;DHT22;62488;-37.670;-63.532;2023-01-31T05:16:08;22.40;98.80
44037;DHT22;62488;-37.670;-63.532;2023-01-31T05:18:36;22.30;98.80
44037;DHT22;62488;-37.670;-63.532;2023-01-31T05:21:04;22.30;98.80
44037;DHT22;62488;-37.670;-63.532;2023-01-31T05:23:32;22.30;99.10
44037;DHT22;62488;-37.670;-63.532;2023-01-31T05:25:59;22.30;98.90
44037;DHT22;62488;-37.670;-63.532;2023-01-31T05:28:26;22.40;99.00
44037;DHT22;62488;-37.670;-63.532;2023-01-31T05:30:53;22.40;98.90
44037;DHT22;62488;-37.670;-63.532;2023-01-31T05:33:26;22.50;98.70
44037;DHT22;62488;-37.670;-63.532;2023-01-31T05:35:54;22.50;98.70
44037;DHT22;62488;-37.670;-63.532;2023-01-31T05:38:21;22.60;98.70
44037;DHT22;62488;-37.670;-63.532;2023-01-31T05:40:49;22.70;98.80
44037;DHT22;62488;-37.670;-63.532;2023-01-31T05:43:16;22.70;99.20
44037;DHT22;62488;-37.670;-63.532;2023-01-31T05:45:43;22.60;99.10
44037;DHT22;62488;-37.670;-63.532;2023-01-31T05:48:10;22.60;99.70
44037;DHT22;62488;-37.670;-63.532;2023-01-31T05:50:37;22.40;99.90
44037;DHT22;62488;-37.670;-63.532;2023-01-31T05:53:04;22.00;99.90
44037;DHT22;62488;-37.670;-63.532;2023-01-31T05:55:31;21.50;99.90
44037;DHT22;62488;-37.670;-63.532;2023-01-31T05:57:58;21.20;99.90
44037;DHT22;62488;-37.670;-63.532;2023-01-31T06:00:26;20.90;99.90
44037;DHT22;62488;-37.670;-63.532;2023-01-31T06:02:56;20.80;99.90
44037;DHT22;62488;-37.670;-63.532;2023-01-31T06:05:24;20.80;99.90
44037;DHT22;62488;-37.670;-63.532;2023-01-31T06:07:51;20.70;99.90
44037;DHT22;62488;-37.670;-63.532;2023-01-31T06:10:18;20.70;99.90
44037;DHT22;62488;-37.670;-63.532;2023-01-31T06:12:45;20.70;99.90
44037;DHT22;62488;-37.670;-63.532;2023-01-31T06:15:12;20.60;99.90
44037;DHT22;62488;-37.670;-63.532;2023-01-31T06:17:39;20.70;99.90
44037;DHT22;62488;-37.670;-63.532;2023-01-31T06:20:06;20.70;99.90
44037;DHT22;62488;-37.670;-63.532;2023-01-31T06:22:33;20.80;99.90
44037;DHT22;62488;-37.670;-63.532;2023-01-31T06:25:00;20.70;99.90
44037;DHT22;62488;-37.670;-63.532;2023-01-31T06:27:30;20.70;99.90
44037;DHT22;62488;-37.670;-63.532;2023-01-31T06:29:56;20.80;99.90
44037;DHT22;62488;-37.670;-63.532;2023-01-31T06:32:23;20.80;99.90
44037;DHT22;62488;-37.670;-63.532;2023-01-31T06:34:50;20.80;99.90
44037;DHT22;62488;-37.670;-63.532;2023-01-31T06:37:17;20.90;99.90
44037;DHT22;62488;-37.670;-63.532;2023-01-31T06:39:44;20.90;99.90
44037;DHT22;62488;-37.670;-63.532;2023-01-31T06:42:11;20.80;99.90
44037;DHT22;62488;-37.670;-63.532;2023-01-31T06:44:38;20.90;99.90
44037;DHT22;62488;-37.670;-63.532;2023-01-31T06:47:05;20.90;99.90
44037;DHT22;62488;-37.670;-63.532;2023-01-31T06:49:32;20.90;99.90
44037;DHT22;62488;-37.670;-63.532;2023-01-31T06:51:59;20.90;99.90
44037;DHT22;62488;-37.670;-63.532;2023-01-31T06:54:26;20.90;99.90
44037;DHT22;62488;-37.670;-63.532;2023-01-31T06:56:53;21.00;99.90
44037;DHT22;62488;-37.670;-63.532;2023-01-31T06:59:20;21.10;99.90
44037;DHT22;62488;-37.670;-63.532;2023-01-31T07:12:43;21.20;99.90
44037;DHT22;62488;-37.670;-63.532;2023-01-31T07:15:11;21.40;99.90
44037;DHT22;62488;-37.670;-63.532;2023-01-31T07:17:38;21.30;99.90
44037;DHT22;62488;-37.670;-63.532;2023-01-31T07:20:06;21.30;99.90
44037;DHT22;62488;-37.670;-63.532;2023-01-31T07:22:33;21.10;99.90
44037;DHT22;62488;-37.670;-63.532;2023-01-31T07:25:00;21.00;99.90
44037;DHT22;62488;-37.670;-63.532;2023-01-31T07:27:27;20.90;99.90
44037;DHT22;62488;-37.670;-63.532;2023-01-31T07:29:54;20.90;99.90
44037;DHT22;62488;-37.670;-63.532;2023-01-31T07:32:21;21.00;99.90
44037;DHT22;62488;-37.670;-63.532;2023-01-31T07:34:48;21.00;99.90
44037;DHT22;62488;-37.670;-63.532;2023-01-31T07:37:15;21.00;99.90
44037;DHT22;62488;-37.670;-63.532;2023-01-31T07:39:42;20.90;99.90
44037;DHT22;62488;-37.670;-63.532;2023-01-31T07:42:08;20.90;99.90
44037;DHT22;62488;-37.670;-63.532;2023-01-31T07:44:35;20.90;99.90
44037;DHT22;62488;-37.670;-63.532;2023-01-31T07:47:02;20.80;99.90
44037;DHT22;62488;-37.670;-63.532;2023-01-31T07:49:29;20.90;99.90
44037;DHT22;62488;-37.670;-63.532;2023-01-31T07:51:56;20.90;99.90
44037;DHT22;62488;-37.670;-63.532;2023-01-31T07:54:23;20.80;99.90
44037;DHT22;62488;-37.670;-63.532;2023-01-31T07:56:50;20.80;99.90
44037;DHT22;62488;-37.670;-63.532;2023-01-31T07:59:17;20.90;99.90
44037;DHT22;62488;-37.670;-63.532;2023-01-31T08:01:45;20.90;99.90
44037;DHT22;62488;-37.670;-63.532;2023-01-31T08:04:30;20.90;99.90
44037;DHT22;62488;-37.670;-63.532;2023-01-31T08:06:59;20.90;99.90
44037;DHT22;62488;-37.670;-63.532;2023-01-31T08:09:28;20.90;99.90
44037;DHT22;62488;-37.670;-63.532;2023-01-31T08:11:56;20.90;99.90
44037;DHT22;62488;-37.670;-63.532;2023-01-31T08:14:23;20.90;99.90
44037;DHT22;62488;-37.670;-63.532;2023-01-31T08:16:51;20.80;99.90
44037;DHT22;62488;-37.670;-63.532;2023-01-31T08:19:18;20.70;99.90
44037;DHT22;62488;-37.670;-63.532;2023-01-31T08:21:44;20.80;99.90
44037;DHT22;62488;-37.670;-63.532;2023-01-31T08:24:11;20.70;99.90
44037;DHT22;62488;-37.670;-63.532;2023-01-31T08:26:40;20.60;99.90
44037;DHT22;62488;-37.670;-63.532;2023-01-31T08:29:07;20.60;99.90
44037;DHT22;62488;-37.670;-63.532;2023-01-31T08:31:34;20.60;99.90
44037;DHT22;62488;-37.670;-63.532;2023-01-31T08:34:01;20.50;99.90
44037;DHT22;62488;-37.670;-63.532;2023-01-31T08:36:30;20.50;99.90
44037;DHT22;62488;-37.670;-63.532;2023-01-31T08:38:57;20.40;99.90
44037;DHT22;62488;-37.670;-63.532;2023-01-31T08:41:25;20.40;99.90
44037;DHT22;62488;-37.670;-63.532;2023-01-31T08:43:53;20.40;99.90
44037;DHT22;62488;-37.670;-63.532;2023-01-31T08:46:21;20.40;99.90
44037;DHT22;62488;-37.670;-63.532;2023-01-31T08:48:48;20.50;99.90
44037;DHT22;62488;-37.670;-63.532;2023-01-31T08:51:15;20.40;99.90
44037;DHT22;62488;-37.670;-63.532;2023-01-31T08:53:43;20.40;99.90
44037;DHT22;62488;-37.670;-63.532;2023-01-31T08:56:11;20.30;99.90
44037;DHT22;62488;-37.670;-63.532;2023-01-31T08:58:40;20.30;99.90
44037;DHT22;62488;-37.670;-63.532;2023-01-31T09:01:13;20.30;99.90
44037;DHT22;62488;-37.670;-63.532;2023-01-31T09:03:40;20.30;99.90
44037;DHT22;62488;-37.670;-63.532;2023-01-31T09:06:11;20.30;99.90
44037;DHT22;62488;-37.670;-63.532;2023-01-31T09:08:39;20.30;99.90
44037;DHT22;62488;-37.670;-63.532;2023-01-31T09:11:06;20.30;99.90
44037;DHT22;62488;-37.670;-63.532;2023-01-31T09:13:34;20.30;99.90
44037;DHT22;62488;-37.670;-63.532;2023-01-31T09:16:09;20.20;99.90
44037;DHT22;62488;-37.670;-63.532;2023-01-31T09:18:38;20.20;99.90
44037;DHT22;62488;-37.670;-63.532;2023-01-31T09:23:35;20.20;99.90
44037;DHT22;62488;-37.670;-63.532;2023-01-31T09:26:03;20.20;99.90
44037;DHT22;62488;-37.670;-63.532;2023-01-31T09:28:30;20.20;99.90
44037;DHT22;62488;-37.670;-63.532;2023-01-31T09:31:06;20.20;99.90
44037;DHT22;62488;-37.670;-63.532;2023-01-31T09:33:33;20.20;99.90
44037;DHT22;62488;-37.670;-63.532;2023-01-31T09:36:04;20.20;99.90
44037;DHT22;62488;-37.670;-63.532;2023-01-31T09:38:31;20.20;99.90
44037;DHT22;62488;-37.670;-63.532;2023-01-31T09:41:02;20.20;99.90
44037;DHT22;62488;-37.670;-63.532;2023-01-31T09:43:39;20.20;99.90
44037;DHT22;62488;-37.670;-63.532;2023-01-31T09:46:12;20.20;99.90
44037;DHT22;62488;-37.670;-63.532;2023-01-31T09:48:43;20.30;99.90
44037;DHT22;62488;-37.670;-63.532;2023-01-31T09:51:12;20.30;99.90
44037;DHT22;62488;-37.670;-63.532;2023-01-31T09:53:40;20.30;99.90
44037;DHT22;62488;-37.670;-63.532;2023-01-31T09:59:13;20.10;99.90
44037;DHT22;62488;-37.670;-63.532;2023-01-31T10:07:24;20.00;99.90
44037;DHT22;62488;-37.670;-63.532;2023-01-31T10:12:45;20.10;99.90
44037;DHT22;62488;-37.670;-63.532;2023-01-31T10:15:41;20.10;99.90
44037;DHT22;62488;-37.670;-63.532;2023-01-31T10:18:35;20.10;99.90
44037;DHT22;62488;-37.670;-63.532;2023-01-31T10:21:10;20.30;99.90
44037;DHT22;62488;-37.670;-63.532;2023-01-31T10:26:24;20.90;99.90
44037;DHT22;62488;-37.670;-63.532;2023-01-31T10:31:57;21.60;99.90
44037;DHT22;62488;-37.670;-63.532;2023-01-31T10:34:28;21.70;99.90
44037;DHT22;62488;-37.670;-63.532;2023-01-31T10:37:13;21.90;99.90
44037;DHT22;62488;-37.670;-63.532;2023-01-31T10:39:57;21.70;99.90
44037;DHT22;62488;-37.670;-63.532;2023-01-31T10:42:36;21.70;99.90
44037;DHT22;62488;-37.670;-63.532;2023-01-31T10:48:23;21.50;99.90
44037;DHT22;62488;-37.670;-63.532;2023-01-31T10:56:42;21.80;99.90
44037;DHT22;62488;-37.670;-63.532;2023-01-31T10:59:32;22.00;99.90
44037;DHT22;62488;-37.670;-63.532;2023-01-31T11:02:01;22.30;99.90
44037;DHT22;62488;-37.670;-63.532;2023-01-31T11:04:37;22.70;99.90
44037;DHT22;62488;-37.670;-63.532;2023-01-31T11:07:05;22.90;99.90
44037;DHT22;62488;-37.670;-63.532;2023-01-31T11:09:39;23.10;99.90
44037;DHT22;62488;-37.670;-63.532;2023-01-31T11:12:07;23.30;99.90
44037;DHT22;62488;-37.670;-63.532;2023-01-31T11:14:34;23.40;99.90
44037;DHT22;62488;-37.670;-63.532;2023-01-31T11:17:13;23.60;99.90
44037;DHT22;62488;-37.670;-63.532;2023-01-31T11:19:51;23.80;99.90
44037;DHT22;62488;-37.670;-63.532;2023-01-31T11:22:26;23.90;99.90
44037;DHT22;62488;-37.670;-63.532;2023-01-31T11:24:56;23.90;99.90
44037;DHT22;62488;-37.670;-63.532;2023-01-31T11:27:38;24.00;99.90
44037;DHT22;62488;-37.670;-63.532;2023-01-31T11:30:18;24.20;99.90
44037;DHT22;62488;-37.670;-63.532;2023-01-31T11:32:45;24.30;99.90
44037;DHT22;62488;-37.670;-63.532;2023-01-31T11:37:53;24.60;99.90
44037;DHT22;62488;-37.670;-63.532;2023-01-31T11:42:58;24.30;99.90
44037;DHT22;62488;-37.670;-63.532;2023-01-31T11:45:31;24.10;99.90
44037;DHT22;62488;-37.670;-63.532;2023-01-31T11:48:15;23.90;99.90
44037;DHT22;62488;-37.670;-63.532;2023-01-31T12:03:33;24.00;99.90
44037;DHT22;62488;-37.670;-63.532;2023-01-31T12:06:05;25.40;99.90
44037;DHT22;62488;-37.670;-63.532;2023-01-31T12:08:42;25.70;99.90
44037;DHT22;62488;-37.670;-63.532;2023-01-31T12:13:47;25.80;99.90
44037;DHT22;62488;-37.670;-63.532;2023-01-31T12:16:21;25.60;99.90
44037;DHT22;62488;-37.670;-63.532;2023-01-31T12:25:01;25.50;99.90
44037;DHT22;62488;-37.670;-63.532;2023-01-31T12:48:17;27.10;99.90
44037;DHT22;62488;-37.670;-63.532;2023-01-31T12:53:41;27.10;99.90
44037;DHT22;62488;-37.670;-63.532;2023-01-31T12:59:01;27.60;99.90
44037;DHT22;62488;-37.670;-63.532;2023-01-31T13:07:23;27.90;99.90
44037;DHT22;62488;-37.670;-63.532;2023-01-31T13:09:53;28.10;99.90
44037;DHT22;62488;-37.670;-63.532;2023-01-31T13:12:26;28.50;99.20
44037;DHT22;62488;-37.670;-63.532;2023-01-31T13:15:25;28.40;98.70
44037;DHT22;62488;-37.670;-63.532;2023-01-31T13:17:58;28.80;98.40
44037;DHT22;62488;-37.670;-63.532;2023-01-31T13:20:32;28.80;97.90
44037;DHT22;62488;-37.670;-63.532;2023-01-31T13:23:05;28.90;98.00
44037;DHT22;62488;-37.670;-63.532;2023-01-31T13:25:41;28.80;97.40
44037;DHT22;62488;-37.670;-63.532;2023-01-31T13:28:18;28.80;97.70
44037;DHT22;62488;-37.670;-63.532;2023-01-31T13:31:02;28.60;97.30
44037;DHT22;62488;-37.670;-63.532;2023-01-31T13:33:35;28.70;98.50
44037;DHT22;62488;-37.670;-63.532;2023-01-31T13:36:22;29.00;97.40
44037;DHT22;62488;-37.670;-63.532;2023-01-31T13:38:51;28.80;97.80
44037;DHT22;62488;-37.670;-63.532;2023-01-31T13:41:21;28.40;98.10
44037;DHT22;62488;-37.670;-63.532;2023-01-31T13:43:49;28.50;98.40
44037;DHT22;62488;-37.670;-63.532;2023-01-31T13:46:21;28.80;97.90
44037;DHT22;62488;-37.670;-63.532;2023-01-31T13:49:15;28.90;98.20
44037;DHT22;62488;-37.670;-63.532;2023-01-31T13:54:40;28.40;97.50
44037;DHT22;62488;-37.670;-63.532;2023-01-31T13:57:22;28.00;98.90
44037;DHT22;62488;-37.670;-63.532;2023-01-31T14:00:24;28.40;98.30
44037;DHT22;62488;-37.670;-63.532;2023-01-31T14:03:15;28.60;98.30
44037;DHT22;62488;-37.670;-63.532;2023-01-31T14:13:44;29.60;95.50
44037;DHT22;62488;-37.670;-63.532;2023-01-31T14:18:57;29.00;97.10
44037;DHT22;62488;-37.670;-63.532;2023-01-31T14:24:01;29.90;95.30
44037;DHT22;62488;-37.670;-63.532;2023-01-31T14:29:07;29.60;94.80
44037;DHT22;62488;-37.670;-63.532;2023-01-31T14:31:35;29.50;95.60
44037;DHT22;62488;-37.670;-63.532;2023-01-31T14:34:02;29.90;94.70
44037;DHT22;62488;-37.670;-63.532;2023-01-31T14:42:22;30.50;94.50
44037;DHT22;62488;-37.670;-63.532;2023-01-31T14:44:56;30.40;94.10
44037;DHT22;62488;-37.670;-63.532;2023-01-31T14:47:35;29.80;95.00
44037;DHT22;62488;-37.670;-63.532;2023-01-31T14:56:21;31.10;93.30
44037;DHT22;62488;-37.670;-63.532;2023-01-31T14:58:52;30.70;94.20
44037;DHT22;62488;-37.670;-63.532;2023-01-31T15:01:21;29.50;95.80
44037;DHT22;62488;-37.670;-63.532;2023-01-31T15:03:57;29.80;95.50
44037;DHT22;62488;-37.670;-63.532;2023-01-31T15:06:36;30.60;95.20
44037;DHT22;62488;-37.670;-63.532;2023-01-31T15:09:17;30.90;94.30
44037;DHT22;62488;-37.670;-63.532;2023-01-31T15:11:50;31.10;94.40
44037;DHT22;62488;-37.670;-63.532;2023-01-31T15:19:53;30.00;94.20
44037;DHT22;62488;-37.670;-63.532;2023-01-31T15:22:23;29.80;95.40
44037;DHT22;62488;-37.670;-63.532;2023-01-31T15:24:55;31.20;94.70
44037;DHT22;62488;-37.670;-63.532;2023-01-31T15:27:27;31.50;93.30
44037;DHT22;62488;-37.670;-63.532;2023-01-31T15:30:04;31.30;93.10
44037;DHT22;62488;-37.670;-63.532;2023-01-31T15:32:39;31.50;92.60
44037;DHT22;62488;-37.670;-63.532;2023-01-31T15:35:26;31.40;92.00
44037;DHT22;62488;-37.670;-63.532;2023-01-31T15:38:28;31.60;92.20
44037;DHT22;62488;-37.670;-63.532;2023-01-31T15:43:52;31.60;92.00
44037;DHT22;62488;-37.670;-63.532;2023-01-31T15:46:26;32.00;91.50
44037;DHT22;62488;-37.670;-63.532;2023-01-31T15:48:54;31.90;91.20
44037;DHT22;62488;-37.670;-63.532;2023-01-31T15:51:21;32.10;91.00
44037;DHT22;62488;-37.670;-63.532;2023-01-31T15:54:00;32.30;90.80
44037;DHT22;62488;-37.670;-63.532;2023-01-31T15:56:28;32.30;89.80
44037;DHT22;62488;-37.670;-63.532;2023-01-31T15:58:56;32.80;90.10
44037;DHT22;62488;-37.670;-63.532;2023-01-31T16:01:25;32.40;90.60
44037;DHT22;62488;-37.670;-63.532;2023-01-31T16:03:59;32.40;89.80
44037;DHT22;62488;-37.670;-63.532;2023-01-31T16:06:34;32.50;89.30
44037;DHT22;62488;-37.670;-63.532;2023-01-31T16:09:04;31.80;90.00
44037;DHT22;62488;-37.670;-63.532;2023-01-31T16:11:33;32.40;88.70
44037;DHT22;62488;-37.670;-63.532;2023-01-31T16:14:04;33.10;88.60
44037;DHT22;62488;-37.670;-63.532;2023-01-31T16:16:34;33.50;87.50
44037;DHT22;62488;-37.670;-63.532;2023-01-31T16:19:02;32.90;87.10
44037;DHT22;62488;-37.670;-63.532;2023-01-31T16:21:35;32.60;86.50
44037;DHT22;62488;-37.670;-63.532;2023-01-31T16:24:13;32.00;89.10
44037;DHT22;62488;-37.670;-63.532;2023-01-31T16:29:19;31.50;89.50
44037;DHT22;62488;-37.670;-63.532;2023-01-31T16:31:52;32.00;88.40
44037;DHT22;62488;-37.670;-63.532;2023-01-31T16:34:29;31.80;87.80
44037;DHT22;62488;-37.670;-63.532;2023-01-31T16:39:49;31.10;89.00
44037;DHT22;62488;-37.670;-63.532;2023-01-31T16:44:46;30.60;90.40
44037;DHT22;62488;-37.670;-63.532;2023-01-31T16:47:46;30.50;89.80
44037;DHT22;62488;-37.670;-63.532;2023-01-31T16:52:47;30.10;90.10
44037;DHT22;62488;-37.670;-63.532;2023-01-31T16:55:20;30.20;90.20
44037;DHT22;62488;-37.670;-63.532;2023-01-31T16:57:49;30.10;90.40
44037;DHT22;62488;-37.670;-63.532;2023-01-31T17:02:57;30.20;90.40
44037;DHT22;62488;-37.670;-63.532;2023-01-31T17:05:27;30.20;91.20
44037;DHT22;62488;-37.670;-63.532;2023-01-31T17:07:56;30.00;91.50
44037;DHT22;62488;-37.670;-63.532;2023-01-31T17:10:26;29.80;92.00
44037;DHT22;62488;-37.670;-63.532;2023-01-31T17:13:07;29.60;92.10
44037;DHT22;62488;-37.670;-63.532;2023-01-31T17:15:39;29.20;92.70
44037;DHT22;62488;-37.670;-63.532;2023-01-31T17:18:09;28.90;92.90
44037;DHT22;62488;-37.670;-63.532;2023-01-31T17:20:46;28.80;93.30
44037;DHT22;62488;-37.670;-63.532;2023-01-31T17:23:17;28.60;93.40
44037;DHT22;62488;-37.670;-63.532;2023-01-31T17:25:44;28.40;93.60
44037;DHT22;62488;-37.670;-63.532;2023-01-31T17:28:11;28.40;93.90
44037;DHT22;62488;-37.670;-63.532;2023-01-31T17:30:40;28.10;95.70
44037;DHT22;62488;-37.670;-63.532;2023-01-31T17:33:13;27.70;97.60
44037;DHT22;62488;-37.670;-63.532;2023-01-31T17:35:43;27.20;99.40
44037;DHT22;62488;-37.670;-63.532;2023-01-31T17:38:12;26.70;99.90
44037;DHT22;62488;-37.670;-63.532;2023-01-31T17:40:46;26.30;99.90
44037;DHT22;62488;-37.670;-63.532;2023-01-31T17:43:20;25.90;99.90
44037;DHT22;62488;-37.670;-63.532;2023-01-31T17:45:47;25.50;99.90
44037;DHT22;62488;-37.670;-63.532;2023-01-31T17:48:14;25.20;99.90
44037;DHT22;62488;-37.670;-63.532;2023-01-31T17:50:43;25.00;99.90
44037;DHT22;62488;-37.670;-63.532;2023-01-31T17:53:12;25.00;99.90
44037;DHT22;62488;-37.670;-63.532;2023-01-31T17:55:40;25.00;99.90
44037;DHT22;62488;-37.670;-63.532;2023-01-31T17:58:14;25.00;99.90
44037;DHT22;62488;-37.670;-63.532;2023-01-31T18:00:41;24.90;99.90
44037;DHT22;62488;-37.670;-63.532;2023-01-31T18:03:13;24.80;99.90
44037;DHT22;62488;-37.670;-63.532;2023-01-31T18:05:41;24.60;99.90
44037;DHT22;62488;-37.670;-63.532;2023-01-31T18:08:08;24.40;99.90
44037;DHT22;62488;-37.670;-63.532;2023-01-31T18:10:34;24.20;99.90
44037;DHT22;62488;-37.670;-63.532;2023-01-31T18:13:01;24.00;99.90
44037;DHT22;62488;-37.670;-63.532;2023-01-31T18:15:29;23.90;99.90